sensor_id;sensor_type;location;lat;lon;timestamp;P1;durP1;ratioP1;P2;durP2;ratioP2
75021;SDS011;63583;49.976;20.182;2023-03-01T00:01:36;22.10;;;9.52;;
75021;SDS011;63583;49.976;20.182;2023-03-01T00:04:01;22.77;;;9.40;;
75021;SDS011;63583;49.976;20.182;2023-03-01T00:06:27;20.00;;;11.27;;
75021;SDS011;63583;49.976;20.182;2023-03-01T00:08:53;23.33;;;12.82;;
75021;SDS011;63583;49.976;20.182;2023-03-01T00:11:20;21.90;;;11.32;;
75021;SDS011;63583;49.976;20.182;2023-03-01T00:13:48;19.73;;;11.07;;
75021;SDS011;63583;49.976;20.182;2023-03-01T00:16:26;19.52;;;9.63;;
75021;SDS011;63583;49.976;20.182;2023-03-01T00:18:53;15.38;;;10.23;;
75021;SDS011;63583;49.976;20.182;2023-03-01T00:21:20;26.67;;;11.68;;
75021;SDS011;63583;49.976;20.182;2023-03-01T00:23:47;28.48;;;13.52;;
75021;SDS011;63583;49.976;20.182;2023-03-01T00:26:17;19.45;;;11.43;;
75021;SDS011;63583;49.976;20.182;2023-03-01T00:28:44;22.23;;;10.80;;
75021;SDS011;63583;49.976;20.182;2023-03-01T00:31:13;21.90;;;10.95;;
75021;SDS011;63583;49.976;20.182;2023-03-01T00:33:43;26.70;;;11.52;;
75021;SDS011;63583;49.976;20.182;2023-03-01T00:36:10;26.38;;;10.20;;
75021;SDS011;63583;49.976;20.182;2023-03-01T00:38:37;22.30;;;9.70;;
75021;SDS011;63583;49.976;20.182;2023-03-01T00:41:08;20.83;;;9.30;;
75021;SDS011;63583;49.976;20.182;2023-03-01T00:43:42;23.30;;;9.63;;
75021;SDS011;63583;49.976;20.182;2023-03-01T00:46:09;27.33;;;11.00;;
75021;SDS011;63583;49.976;20.182;2023-03-01T00:48:36;23.70;;;10.63;;
75021;SDS011;63583;49.976;20.182;2023-03-01T00:51:06;16.98;;;9.60;;
75021;SDS011;63583;49.976;20.182;2023-03-01T00:53:34;21.80;;;11.70;;
75021;SDS011;63583;49.976;20.182;2023-03-01T00:56:00;21.52;;;11.32;;
75021;SDS011;63583;49.976;20.182;2023-03-01T00:58:26;27.50;;;12.50;;
75021;SDS011;63583;49.976;20.182;2023-03-01T01:00:53;30.77;;;15.18;;
75021;SDS011;63583;49.976;20.182;2023-03-01T01:03:18;30.48;;;13.93;;
75021;SDS011;63583;49.976;20.182;2023-03-01T01:05:45;24.65;;;14.75;;
75021;SDS011;63583;49.976;20.182;2023-03-01T01:08:10;19.65;;;10.73;;
75021;SDS011;63583;49.976;20.182;2023-03-01T01:10:36;26.98;;;13.95;;
75021;SDS011;63583;49.976;20.182;2023-03-01T01:13:02;24.40;;;13.45;;
75021;SDS011;63583;49.976;20.182;2023-03-01T01:15:29;34.78;;;15.32;;
75021;SDS011;63583;49.976;20.182;2023-03-01T01:17:58;20.63;;;12.95;;
75021;SDS011;63583;49.976;20.182;2023-03-01T01:20:24;25.75;;;13.05;;
75021;SDS011;63583;49.976;20.182;2023-03-01T01:22:49;34.30;;;13.25;;
75021;SDS011;63583;49.976;20.182;2023-03-01T01:25:16;23.48;;;13.48;;
75021;SDS011;63583;49.976;20.182;2023-03-01T01:27:42;22.55;;;12.20;;
75021;SDS011;63583;49.976;20.182;2023-03-01T01:30:08;28.40;;;14.90;;
75021;SDS011;63583;49.976;20.182;2023-03-01T01:32:34;33.75;;;14.38;;
75021;SDS011;63583;49.976;20.182;2023-03-01T01:35:00;24.52;;;12.65;;
75021;SDS011;63583;49.976;20.182;2023-03-01T01:37:26;17.42;;;11.30;;
75021;SDS011;63583;49.976;20.182;2023-03-01T01:39:57;30.58;;;15.60;;
75021;SDS011;63583;49.976;20.182;2023-03-01T01:42:24;28.90;;;14.27;;
75021;SDS011;63583;49.976;20.182;2023-03-01T01:48:06;26.40;;;11.63;;
75021;SDS011;63583;49.976;20.182;2023-03-01T01:50:36;20.65;;;10.32;;
75021;SDS011;63583;49.976;20.182;2023-03-01T01:53:12;19.50;;;9.60;;
75021;SDS011;63583;49.976;20.182;2023-03-01T01:55:45;22.42;;;9.23;;
75021;SDS011;63583;49.976;20.182;2023-03-01T01:58:17;19.63;;;9.80;;
75021;SDS011;63583;49.976;20.182;2023-03-01T02:00:45;14.00;;;8.95;;
75021;SDS011;63583;49.976;20.182;2023-03-01T02:03:13;32.67;;;11.40;;
75021;SDS011;63583;49.976;20.182;2023-03-01T02:05:57;28.13;;;11.65;;
75021;SDS011;63583;49.976;20.182;2023-03-01T02:08:29;13.07;;;9.18;;
75021;SDS011;63583;49.976;20.182;2023-03-01T02:10:57;20.10;;;10.25;;
75021;SDS011;63583;49.976;20.182;2023-03-01T02:13:25;16.92;;;8.52;;
75021;SDS011;63583;49.976;20.182;2023-03-01T02:15:51;20.20;;;8.98;;
75021;SDS011;63583;49.976;20.182;2023-03-01T02:18:18;13.70;;;7.93;;
75021;SDS011;63583;49.976;20.182;2023-03-01T02:25:44;15.75;;;7.35;;
75021;SDS011;63583;49.976;20.182;2023-03-01T02:28:24;18.80;;;9.48;;
75021;SDS011;63583;49.976;20.182;2023-03-01T02:31:01;20.13;;;9.93;;
75021;SDS011;63583;49.976;20.182;2023-03-01T02:33:47;19.27;;;10.35;;
75021;SDS011;63583;49.976;20.182;2023-03-01T02:36:15;24.63;;;11.18;;
75021;SDS011;63583;49.976;20.182;2023-03-01T02:38:45;19.20;;;9.85;;
75021;SDS011;63583;49.976;20.182;2023-03-01T02:41:13;21.02;;;11.77;;
75021;SDS011;63583;49.976;20.182;2023-03-01T02:43:41;27.15;;;11.65;;
75021;SDS011;63583;49.976;20.182;2023-03-01T02:46:12;22.05;;;10.32;;
75021;SDS011;63583;49.976;20.182;2023-03-01T02:48:43;17.20;;;8.68;;
75021;SDS011;63583;49.976;20.182;2023-03-01T02:51:41;24.20;;;10.85;;
75021;SDS011;63583;49.976;20.182;2023-03-01T02:56:50;15.57;;;8.48;;
75021;SDS011;63583;49.976;20.182;2023-03-01T02:59:18;18.63;;;8.52;;
75021;SDS011;63583;49.976;20.182;2023-03-01T03:01:45;17.17;;;8.57;;
75021;SDS011;63583;49.976;20.182;2023-03-01T03:04:13;22.40;;;12.18;;
75021;SDS011;63583;49.976;20.182;2023-03-01T03:06:44;21.38;;;11.38;;
75021;SDS011;63583;49.976;20.182;2023-03-01T03:09:11;22.95;;;9.63;;
75021;SDS011;63583;49.976;20.182;2023-03-01T03:11:38;20.55;;;11.43;;
75021;SDS011;63583;49.976;20.182;2023-03-01T03:14:06;21.48;;;10.70;;
75021;SDS011;63583;49.976;20.182;2023-03-01T03:16:41;24.63;;;10.80;;
75021;SDS011;63583;49.976;20.182;2023-03-01T03:19:08;18.98;;;11.63;;
75021;SDS011;63583;49.976;20.182;2023-03-01T03:21:34;23.52;;;10.60;;
75021;SDS011;63583;49.976;20.182;2023-03-01T03:24:00;27.58;;;11.38;;
75021;SDS011;63583;49.976;20.182;2023-03-01T03:26:27;21.55;;;10.90;;
75021;SDS011;63583;49.976;20.182;2023-03-01T03:28:52;30.92;;;12.25;;
75021;SDS011;63583;49.976;20.182;2023-03-01T03:31:18;20.63;;;10.68;;
75021;SDS011;63583;49.976;20.182;2023-03-01T03:33:44;25.92;;;11.55;;
75021;SDS011;63583;49.976;20.182;2023-03-01T03:36:17;20.02;;;10.27;;
75021;SDS011;63583;49.976;20.182;2023-03-01T03:38:47;25.55;;;10.88;;
75021;SDS011;63583;49.976;20.182;2023-03-01T03:41:14;30.90;;;12.40;;
75021;SDS011;63583;49.976;20.182;2023-03-01T03:43:41;27.40;;;12.50;;
75021;SDS011;63583;49.976;20.182;2023-03-01T03:46:08;27.88;;;13.32;;
75021;SDS011;63583;49.976;20.182;2023-03-01T03:48:42;25.27;;;12.38;;
75021;SDS011;63583;49.976;20.182;2023-03-01T03:51:10;26.38;;;12.23;;
75021;SDS011;63583;49.976;20.182;2023-03-01T03:53:39;24.85;;;12.77;;
75021;SDS011;63583;49.976;20.182;2023-03-01T03:56:06;29.08;;;12.88;;
75021;SDS011;63583;49.976;20.182;2023-03-01T03:58:31;25.17;;;12.00;;
75021;SDS011;63583;49.976;20.182;2023-03-01T04:00:58;29.75;;;13.25;;
75021;SDS011;63583;49.976;20.182;2023-03-01T04:03:25;25.88;;;11.82;;
75021;SDS011;63583;49.976;20.182;2023-03-01T04:05:51;23.17;;;13.10;;
75021;SDS011;63583;49.976;20.182;2023-03-01T04:08:18;28.63;;;13.95;;
75021;SDS011;63583;49.976;20.182;2023-03-01T04:10:47;28.85;;;12.70;;
75021;SDS011;63583;49.976;20.182;2023-03-01T04:13:19;23.50;;;11.75;;
75021;SDS011;63583;49.976;20.182;2023-03-01T04:15:48;22.42;;;12.25;;
75021;SDS011;63583;49.976;20.182;2023-03-01T04:18:18;31.15;;;11.82;;
75021;SDS011;63583;49.976;20.182;2023-03-01T04:20:46;14.27;;;11.15;;
75021;SDS011;63583;49.976;20.182;2023-03-01T04:23:15;22.42;;;12.57;;
75021;SDS011;63583;49.976;20.182;2023-03-01T04:25:50;22.23;;;10.82;;
75021;SDS011;63583;49.976;20.182;2023-03-01T04:28:25;20.77;;;10.20;;
75021;SDS011;63583;49.976;20.182;2023-03-01T04:30:53;23.23;;;12.07;;
75021;SDS011;63583;49.976;20.182;2023-03-01T04:33:19;19.73;;;10.45;;
75021;SDS011;63583;49.976;20.182;2023-03-01T04:35:46;27.60;;;10.30;;
75021;SDS011;63583;49.976;20.182;2023-03-01T04:38:14;23.27;;;12.48;;
75021;SDS011;63583;49.976;20.182;2023-03-01T04:40:43;38.20;;;12.43;;
75021;SDS011;63583;49.976;20.182;2023-03-01T04:43:10;28.58;;;16.05;;
75021;SDS011;63583;49.976;20.182;2023-03-01T04:45:36;25.33;;;16.65;;
75021;SDS011;63583;49.976;20.182;2023-03-01T04:48:02;35.40;;;18.20;;
75021;SDS011;63583;49.976;20.182;2023-03-01T04:50:29;33.55;;;17.48;;
75021;SDS011;63583;49.976;20.182;2023-03-01T04:52:55;39.08;;;17.73;;
75021;SDS011;63583;49.976;20.182;2023-03-01T04:55:24;29.52;;;16.95;;
75021;SDS011;63583;49.976;20.182;2023-03-01T04:57:53;38.85;;;18.17;;
75021;SDS011;63583;49.976;20.182;2023-03-01T05:00:20;22.20;;;12.57;;
75021;SDS011;63583;49.976;20.182;2023-03-01T05:02:47;32.45;;;14.65;;
75021;SDS011;63583;49.976;20.182;2023-03-01T05:05:21;23.50;;;12.25;;
75021;SDS011;63583;49.976;20.182;2023-03-01T05:07:53;24.63;;;10.02;;
75021;SDS011;63583;49.976;20.182;2023-03-01T05:10:24;18.45;;;10.55;;
75021;SDS011;63583;49.976;20.182;2023-03-01T05:12:51;22.98;;;10.90;;
75021;SDS011;63583;49.976;20.182;2023-03-01T05:15:18;18.75;;;8.90;;
75021;SDS011;63583;49.976;20.182;2023-03-01T05:17:47;25.00;;;7.70;;
75021;SDS011;63583;49.976;20.182;2023-03-01T05:20:14;18.73;;;8.90;;
75021;SDS011;63583;49.976;20.182;2023-03-01T05:22:39;12.70;;;8.10;;
75021;SDS011;63583;49.976;20.182;2023-03-01T05:25:05;14.48;;;8.73;;
75021;SDS011;63583;49.976;20.182;2023-03-01T05:27:32;17.20;;;10.32;;
75021;SDS011;63583;49.976;20.182;2023-03-01T05:29:58;19.05;;;10.98;;
75021;SDS011;63583;49.976;20.182;2023-03-01T05:32:24;24.55;;;11.60;;
75021;SDS011;63583;49.976;20.182;2023-03-01T05:34:50;21.20;;;10.05;;
75021;SDS011;63583;49.976;20.182;2023-03-01T05:37:17;19.65;;;9.30;;
75021;SDS011;63583;49.976;20.182;2023-03-01T05:39:43;13.93;;;9.10;;
75021;SDS011;63583;49.976;20.182;2023-03-01T05:42:09;17.98;;;9.38;;
75021;SDS011;63583;49.976;20.182;2023-03-01T05:44:36;16.33;;;7.25;;
75021;SDS011;63583;49.976;20.182;2023-03-01T05:47:01;11.88;;;5.63;;
75021;SDS011;63583;49.976;20.182;2023-03-01T05:49:27;19.77;;;6.88;;
75021;SDS011;63583;49.976;20.182;2023-03-01T05:51:53;11.68;;;7.68;;
75021;SDS011;63583;49.976;20.182;2023-03-01T05:54:20;15.70;;;6.97;;
75021;SDS011;63583;49.976;20.182;2023-03-01T05:56:46;15.27;;;8.15;;
75021;SDS011;63583;49.976;20.182;2023-03-01T05:59:12;20.08;;;8.00;;
75021;SDS011;63583;49.976;20.182;2023-03-01T06:01:39;22.63;;;8.88;;
75021;SDS011;63583;49.976;20.182;2023-03-01T06:04:04;17.73;;;11.48;;
75021;SDS011;63583;49.976;20.182;2023-03-01T06:06:34;18.48;;;11.52;;
75021;SDS011;63583;49.976;20.182;2023-03-01T06:09:03;15.77;;;9.95;;
75021;SDS011;63583;49.976;20.182;2023-03-01T06:11:29;23.00;;;10.95;;
75021;SDS011;63583;49.976;20.182;2023-03-01T06:13:55;31.77;;;11.52;;
75021;SDS011;63583;49.976;20.182;2023-03-01T06:16:21;19.55;;;12.43;;
75021;SDS011;63583;49.976;20.182;2023-03-01T06:18:46;31.88;;;13.93;;
75021;SDS011;63583;49.976;20.182;2023-03-01T06:21:12;28.27;;;12.20;;
75021;SDS011;63583;49.976;20.182;2023-03-01T06:23:38;32.35;;;14.60;;
75021;SDS011;63583;49.976;20.182;2023-03-01T06:26:07;18.33;;;11.93;;
75021;SDS011;63583;49.976;20.182;2023-03-01T06:28:34;34.67;;;13.32;;
75021;SDS011;63583;49.976;20.182;2023-03-01T06:31:00;22.77;;;11.65;;
75021;SDS011;63583;49.976;20.182;2023-03-01T06:33:26;25.67;;;13.27;;
75021;SDS011;63583;49.976;20.182;2023-03-01T06:35:54;33.08;;;13.68;;
75021;SDS011;63583;49.976;20.182;2023-03-01T06:38:20;21.65;;;12.45;;
75021;SDS011;63583;49.976;20.182;2023-03-01T06:40:50;17.42;;;11.18;;
75021;SDS011;63583;49.976;20.182;2023-03-01T06:43:17;20.35;;;10.52;;
75021;SDS011;63583;49.976;20.182;2023-03-01T06:45:43;30.63;;;12.73;;
75021;SDS011;63583;49.976;20.182;2023-03-01T06:48:08;21.55;;;12.35;;
75021;SDS011;63583;49.976;20.182;2023-03-01T06:50:34;22.80;;;11.45;;
75021;SDS011;63583;49.976;20.182;2023-03-01T06:53:01;23.75;;;11.15;;
75021;SDS011;63583;49.976;20.182;2023-03-01T06:55:27;17.38;;;11.02;;
75021;SDS011;63583;49.976;20.182;2023-03-01T06:57:53;23.77;;;11.40;;
75021;SDS011;63583;49.976;20.182;2023-03-01T07:00:23;22.23;;;11.60;;
75021;SDS011;63583;49.976;20.182;2023-03-01T07:02:49;27.73;;;11.18;;
75021;SDS011;63583;49.976;20.182;2023-03-01T07:05:15;26.38;;;11.32;;
75021;SDS011;63583;49.976;20.182;2023-03-01T07:07:41;26.08;;;11.10;;
75021;SDS011;63583;49.976;20.182;2023-03-01T07:10:06;25.63;;;12.27;;
75021;SDS011;63583;49.976;20.182;2023-03-01T07:12:33;20.17;;;11.57;;
75021;SDS011;63583;49.976;20.182;2023-03-01T07:14:58;25.92;;;12.88;;
75021;SDS011;63583;49.976;20.182;2023-03-01T07:17:24;30.25;;;12.55;;
75021;SDS011;63583;49.976;20.182;2023-03-01T07:19:50;35.90;;;13.55;;
75021;SDS011;63583;49.976;20.182;2023-03-01T07:22:16;33.17;;;14.98;;
75021;SDS011;63583;49.976;20.182;2023-03-01T07:24:42;25.00;;;12.88;;
75021;SDS011;63583;49.976;20.182;2023-03-01T07:27:08;28.50;;;13.55;;
75021;SDS011;63583;49.976;20.182;2023-03-01T07:29:34;26.35;;;14.80;;
75021;SDS011;63583;49.976;20.182;2023-03-01T07:32:02;27.95;;;14.43;;
75021;SDS011;63583;49.976;20.182;2023-03-01T07:34:28;29.35;;;11.27;;
75021;SDS011;63583;49.976;20.182;2023-03-01T07:36:54;24.10;;;11.98;;
75021;SDS011;63583;49.976;20.182;2023-03-01T07:39:20;29.50;;;12.02;;
75021;SDS011;63583;49.976;20.182;2023-03-01T07:41:48;22.42;;;12.32;;
75021;SDS011;63583;49.976;20.182;2023-03-01T07:44:14;26.67;;;10.98;;
75021;SDS011;63583;49.976;20.182;2023-03-01T07:46:41;22.95;;;12.82;;
75021;SDS011;63583;49.976;20.182;2023-03-01T07:49:07;20.40;;;10.10;;
75021;SDS011;63583;49.976;20.182;2023-03-01T07:51:33;19.40;;;11.48;;
75021;SDS011;63583;49.976;20.182;2023-03-01T07:53:58;18.02;;;8.65;;
75021;SDS011;63583;49.976;20.182;2023-03-01T07:56:24;19.42;;;9.27;;
75021;SDS011;63583;49.976;20.182;2023-03-01T07:58:50;27.17;;;13.18;;
75021;SDS011;63583;49.976;20.182;2023-03-01T08:01:17;27.23;;;11.05;;
75021;SDS011;63583;49.976;20.182;2023-03-01T08:03:44;23.33;;;10.73;;
75021;SDS011;63583;49.976;20.182;2023-03-01T08:06:11;17.42;;;8.45;;
75021;SDS011;63583;49.976;20.182;2023-03-01T08:08:38;20.75;;;8.10;;
75021;SDS011;63583;49.976;20.182;2023-03-01T08:11:05;24.45;;;10.45;;
75021;SDS011;63583;49.976;20.182;2023-03-01T08:13:32;17.00;;;9.73;;
75021;SDS011;63583;49.976;20.182;2023-03-01T08:16:06;12.18;;;6.85;;
75021;SDS011;63583;49.976;20.182;2023-03-01T08:18:35;27.77;;;9.30;;
75021;SDS011;63583;49.976;20.182;2023-03-01T08:21:02;12.20;;;5.70;;
75021;SDS011;63583;49.976;20.182;2023-03-01T08:23:32;20.10;;;7.25;;
75021;SDS011;63583;49.976;20.182;2023-03-01T08:26:08;20.60;;;8.82;;
75021;SDS011;63583;49.976;20.182;2023-03-01T08:28:35;18.63;;;9.98;;
75021;SDS011;63583;49.976;20.182;2023-03-01T08:31:02;25.45;;;10.07;;
75021;SDS011;63583;49.976;20.182;2023-03-01T08:33:28;17.98;;;8.82;;
75021;SDS011;63583;49.976;20.182;2023-03-01T08:36:01;15.60;;;7.97;;
75021;SDS011;63583;49.976;20.182;2023-03-01T08:38:28;19.80;;;8.80;;
75021;SDS011;63583;49.976;20.182;2023-03-01T08:40:54;13.73;;;7.43;;
75021;SDS011;63583;49.976;20.182;2023-03-01T08:43:19;19.15;;;10.48;;
75021;SDS011;63583;49.976;20.182;2023-03-01T08:45:47;19.08;;;8.80;;
75021;SDS011;63583;49.976;20.182;2023-03-01T08:48:13;19.50;;;9.45;;
75021;SDS011;63583;49.976;20.182;2023-03-01T08:50:39;25.58;;;11.63;;
75021;SDS011;63583;49.976;20.182;2023-03-01T08:53:06;17.67;;;9.07;;
75021;SDS011;63583;49.976;20.182;2023-03-01T08:55:32;19.77;;;8.98;;
75021;SDS011;63583;49.976;20.182;2023-03-01T08:57:57;24.23;;;9.27;;
75021;SDS011;63583;49.976;20.182;2023-03-01T09:00:26;16.98;;;7.35;;
75021;SDS011;63583;49.976;20.182;2023-03-01T09:02:52;15.40;;;7.90;;
75021;SDS011;63583;49.976;20.182;2023-03-01T09:05:17;9.35;;;5.85;;
75021;SDS011;63583;49.976;20.182;2023-03-01T09:07:44;15.68;;;7.97;;
75021;SDS011;63583;49.976;20.182;2023-03-01T09:10:10;17.27;;;10.55;;
75021;SDS011;63583;49.976;20.182;2023-03-01T09:12:36;17.70;;;9.10;;
75021;SDS011;63583;49.976;20.182;2023-03-01T09:15:02;19.50;;;8.70;;
75021;SDS011;63583;49.976;20.182;2023-03-01T09:17:28;20.30;;;9.98;;
75021;SDS011;63583;49.976;20.182;2023-03-01T09:19:53;17.02;;;9.93;;
75021;SDS011;63583;49.976;20.182;2023-03-01T09:22:19;23.40;;;10.00;;
75021;SDS011;63583;49.976;20.182;2023-03-01T09:24:45;23.90;;;8.85;;
75021;SDS011;63583;49.976;20.182;2023-03-01T09:27:10;15.45;;;7.70;;
75021;SDS011;63583;49.976;20.182;2023-03-01T09:29:38;18.10;;;8.02;;
75021;SDS011;63583;49.976;20.182;2023-03-01T09:32:03;15.50;;;7.70;;
75021;SDS011;63583;49.976;20.182;2023-03-01T09:34:29;20.58;;;8.30;;
75021;SDS011;63583;49.976;20.182;2023-03-01T09:36:57;14.45;;;8.35;;
75021;SDS011;63583;49.976;20.182;2023-03-01T09:39:23;17.45;;;7.72;;
75021;SDS011;63583;49.976;20.182;2023-03-01T09:41:50;12.70;;;7.30;;
75021;SDS011;63583;49.976;20.182;2023-03-01T09:44:27;19.50;;;9.13;;
75021;SDS011;63583;49.976;20.182;2023-03-01T09:47:17;10.13;;;5.55;;
75021;SDS011;63583;49.976;20.182;2023-03-01T09:49:51;14.27;;;7.22;;
75021;SDS011;63583;49.976;20.182;2023-03-01T09:52:26;11.48;;;6.05;;
75021;SDS011;63583;49.976;20.182;2023-03-01T09:56:00;14.45;;;6.28;;
75021;SDS011;63583;49.976;20.182;2023-03-01T10:00:53;13.10;;;5.93;;
75021;SDS011;63583;49.976;20.182;2023-03-01T10:03:26;10.63;;;5.22;;
75021;SDS011;63583;49.976;20.182;2023-03-01T10:08:28;11.32;;;5.68;;
75021;SDS011;63583;49.976;20.182;2023-03-01T10:10:56;11.45;;;5.53;;
75021;SDS011;63583;49.976;20.182;2023-03-01T10:13:45;13.15;;;5.35;;
75021;SDS011;63583;49.976;20.182;2023-03-01T10:16:21;16.98;;;6.63;;
75021;SDS011;63583;49.976;20.182;2023-03-01T10:18:56;8.73;;;4.50;;
75021;SDS011;63583;49.976;20.182;2023-03-01T10:21:26;10.43;;;5.70;;
75021;SDS011;63583;49.976;20.182;2023-03-01T10:23:53;14.48;;;5.90;;
75021;SDS011;63583;49.976;20.182;2023-03-01T10:26:33;12.05;;;7.10;;
75021;SDS011;63583;49.976;20.182;2023-03-01T10:29:12;21.58;;;7.82;;
75021;SDS011;63583;49.976;20.182;2023-03-01T10:31:49;17.05;;;6.68;;
75021;SDS011;63583;49.976;20.182;2023-03-01T10:37:10;15.10;;;7.85;;
75021;SDS011;63583;49.976;20.182;2023-03-01T10:39:57;17.42;;;8.50;;
75021;SDS011;63583;49.976;20.182;2023-03-01T10:42:45;18.50;;;8.73;;
75021;SDS011;63583;49.976;20.182;2023-03-01T10:47:44;19.42;;;8.98;;
75021;SDS011;63583;49.976;20.182;2023-03-01T10:50:20;20.10;;;9.68;;
75021;SDS011;63583;49.976;20.182;2023-03-01T10:52:59;19.88;;;8.90;;
75021;SDS011;63583;49.976;20.182;2023-03-01T10:55:38;22.40;;;10.30;;
75021;SDS011;63583;49.976;20.182;2023-03-01T11:00:52;17.52;;;9.55;;
75021;SDS011;63583;49.976;20.182;2023-03-01T11:03:27;17.08;;;8.82;;
75021;SDS011;63583;49.976;20.182;2023-03-01T11:08:51;21.35;;;9.57;;
75021;SDS011;63583;49.976;20.182;2023-03-01T11:11:34;21.10;;;8.40;;
75021;SDS011;63583;49.976;20.182;2023-03-01T11:14:35;18.50;;;8.15;;
75021;SDS011;63583;49.976;20.182;2023-03-01T11:17:05;23.90;;;8.95;;
75021;SDS011;63583;49.976;20.182;2023-03-01T11:19:41;19.88;;;8.18;;
75021;SDS011;63583;49.976;20.182;2023-03-01T11:22:13;20.88;;;8.70;;
75021;SDS011;63583;49.976;20.182;2023-03-01T11:24:50;17.10;;;7.32;;
75021;SDS011;63583;49.976;20.182;2023-03-01T11:27:22;15.35;;;6.57;;
75021;SDS011;63583;49.976;20.182;2023-03-01T11:36:30;13.38;;;6.45;;
75021;SDS011;63583;49.976;20.182;2023-03-01T11:41:17;11.25;;;5.28;;
75021;SDS011;63583;49.976;20.182;2023-03-01T11:43:51;14.35;;;7.82;;
75021;SDS011;63583;49.976;20.182;2023-03-01T11:51:37;17.50;;;7.15;;
75021;SDS011;63583;49.976;20.182;2023-03-01T11:57:12;16.55;;;7.35;;
75021;SDS011;63583;49.976;20.182;2023-03-01T12:10:36;13.65;;;6.78;;
75021;SDS011;63583;49.976;20.182;2023-03-01T12:16:17;16.42;;;7.57;;
75021;SDS011;63583;49.976;20.182;2023-03-01T12:19:03;15.27;;;6.35;;
75021;SDS011;63583;49.976;20.182;2023-03-01T12:41:04;16.05;;;7.20;;
75021;SDS011;63583;49.976;20.182;2023-03-01T12:46:46;13.73;;;6.57;;
75021;SDS011;63583;49.976;20.182;2023-03-01T12:49:26;16.45;;;7.88;;
75021;SDS011;63583;49.976;20.182;2023-03-01T12:52:00;14.38;;;7.00;;
75021;SDS011;63583;49.976;20.182;2023-03-01T12:54:35;14.75;;;7.20;;
75021;SDS011;63583;49.976;20.182;2023-03-01T12:57:50;14.88;;;6.20;;
75021;SDS011;63583;49.976;20.182;2023-03-01T12:59:51;15.40;;;7.25;;
75021;SDS011;63583;49.976;20.182;2023-03-01T13:02:41;15.52;;;6.72;;
75021;SDS011;63583;49.976;20.182;2023-03-01T13:05:24;16.15;;;7.20;;
75021;SDS011;63583;49.976;20.182;2023-03-01T13:08:11;12.93;;;7.25;;
75021;SDS011;63583;49.976;20.182;2023-03-01T13:10:57;15.48;;;7.80;;
75021;SDS011;63583;49.976;20.182;2023-03-01T13:13:27;16.75;;;7.03;;
75021;SDS011;63583;49.976;20.182;2023-03-01T13:15:53;15.07;;;7.45;;
75021;SDS011;63583;49.976;20.182;2023-03-01T13:20:48;19.75;;;7.97;;
75021;SDS011;63583;49.976;20.182;2023-03-01T13:26:03;14.48;;;6.88;;
75021;SDS011;63583;49.976;20.182;2023-03-01T13:34:00;9.70;;;3.63;;
75021;SDS011;63583;49.976;20.182;2023-03-01T13:38:58;9.50;;;4.97;;
75021;SDS011;63583;49.976;20.182;2023-03-01T13:49:43;9.98;;;6.13;;
75021;SDS011;63583;49.976;20.182;2023-03-01T13:55:03;14.07;;;5.70;;
75021;SDS011;63583;49.976;20.182;2023-03-01T13:57:39;13.85;;;5.90;;
75021;SDS011;63583;49.976;20.182;2023-03-01T14:00:24;12.02;;;5.75;;
75021;SDS011;63583;49.976;20.182;2023-03-01T14:03:05;11.45;;;5.28;;
75021;SDS011;63583;49.976;20.182;2023-03-01T14:05:57;14.25;;;6.07;;
75021;SDS011;63583;49.976;20.182;2023-03-01T14:08:26;16.00;;;6.43;;
75021;SDS011;63583;49.976;20.182;2023-03-01T14:13:35;11.90;;;5.35;;
75021;SDS011;63583;49.976;20.182;2023-03-01T14:16:39;12.98;;;5.32;;
75021;SDS011;63583;49.976;20.182;2023-03-01T14:19:27;15.85;;;7.32;;
75021;SDS011;63583;49.976;20.182;2023-03-01T14:22:04;13.30;;;5.65;;
75021;SDS011;63583;49.976;20.182;2023-03-01T14:24:41;12.45;;;6.50;;
75021;SDS011;63583;49.976;20.182;2023-03-01T14:27:13;12.32;;;5.93;;
75021;SDS011;63583;49.976;20.182;2023-03-01T14:29:39;13.00;;;5.72;;
75021;SDS011;63583;49.976;20.182;2023-03-01T14:32:19;13.70;;;5.72;;
75021;SDS011;63583;49.976;20.182;2023-03-01T14:34:46;11.75;;;5.90;;
75021;SDS011;63583;49.976;20.182;2023-03-01T14:37:19;9.93;;;6.22;;
75021;SDS011;63583;49.976;20.182;2023-03-01T14:39:52;13.55;;;5.93;;
75021;SDS011;63583;49.976;20.182;2023-03-01T14:42:20;10.35;;;5.43;;
75021;SDS011;63583;49.976;20.182;2023-03-01T14:44:48;13.55;;;6.85;;
75021;SDS011;63583;49.976;20.182;2023-03-01T14:47:26;11.68;;;6.18;;
75021;SDS011;63583;49.976;20.182;2023-03-01T14:49:58;11.48;;;5.82;;
75021;SDS011;63583;49.976;20.182;2023-03-01T14:52:34;19.05;;;7.90;;
75021;SDS011;63583;49.976;20.182;2023-03-01T14:55:03;18.13;;;8.25;;
75021;SDS011;63583;49.976;20.182;2023-03-01T14:57:31;20.80;;;8.60;;
75021;SDS011;63583;49.976;20.182;2023-03-01T14:59:58;18.00;;;8.50;;
75021;SDS011;63583;49.976;20.182;2023-03-01T15:02:28;15.20;;;6.55;;
75021;SDS011;63583;49.976;20.182;2023-03-01T15:04:56;14.43;;;6.70;;
75021;SDS011;63583;49.976;20.182;2023-03-01T15:07:34;19.52;;;12.48;;
75021;SDS011;63583;49.976;20.182;2023-03-01T15:10:04;10.13;;;5.90;;
75021;SDS011;63583;49.976;20.182;2023-03-01T15:12:36;14.50;;;6.07;;
75021;SDS011;63583;49.976;20.182;2023-03-01T15:18:00;13.07;;;6.32;;
75021;SDS011;63583;49.976;20.182;2023-03-01T15:20:28;13.82;;;6.00;;
75021;SDS011;63583;49.976;20.182;2023-03-01T15:22:57;14.15;;;7.05;;
75021;SDS011;63583;49.976;20.182;2023-03-01T15:25:26;14.77;;;6.40;;
75021;SDS011;63583;49.976;20.182;2023-03-01T15:27:54;14.25;;;5.85;;
75021;SDS011;63583;49.976;20.182;2023-03-01T15:30:26;11.90;;;5.75;;
75021;SDS011;63583;49.976;20.182;2023-03-01T15:33:35;9.32;;;4.82;;
75021;SDS011;63583;49.976;20.182;2023-03-01T15:35:57;17.00;;;7.57;;
75021;SDS011;63583;49.976;20.182;2023-03-01T15:38:35;9.95;;;4.40;;
75021;SDS011;63583;49.976;20.182;2023-03-01T15:43:59;10.90;;;5.18;;
75021;SDS011;63583;49.976;20.182;2023-03-01T15:46:32;9.93;;;5.20;;
75021;SDS011;63583;49.976;20.182;2023-03-01T15:49:03;10.02;;;5.32;;
75021;SDS011;63583;49.976;20.182;2023-03-01T15:53:59;12.27;;;5.50;;
75021;SDS011;63583;49.976;20.182;2023-03-01T15:56:27;12.02;;;5.03;;
75021;SDS011;63583;49.976;20.182;2023-03-01T15:58:56;13.07;;;5.63;;
75021;SDS011;63583;49.976;20.182;2023-03-01T16:01:23;14.82;;;5.57;;
75021;SDS011;63583;49.976;20.182;2023-03-01T16:03:49;12.00;;;5.55;;
75021;SDS011;63583;49.976;20.182;2023-03-01T16:06:14;9.32;;;4.20;;
75021;SDS011;63583;49.976;20.182;2023-03-01T16:08:40;12.98;;;5.25;;
75021;SDS011;63583;49.976;20.182;2023-03-01T16:11:17;11.20;;;5.22;;
75021;SDS011;63583;49.976;20.182;2023-03-01T16:13:44;9.77;;;5.57;;
75021;SDS011;63583;49.976;20.182;2023-03-01T16:16:11;13.95;;;5.70;;
75021;SDS011;63583;49.976;20.182;2023-03-01T16:18:41;11.15;;;5.90;;
75021;SDS011;63583;49.976;20.182;2023-03-01T16:21:15;11.32;;;5.03;;
75021;SDS011;63583;49.976;20.182;2023-03-01T16:23:45;10.32;;;4.22;;
75021;SDS011;63583;49.976;20.182;2023-03-01T16:26:11;11.80;;;5.55;;
75021;SDS011;63583;49.976;20.182;2023-03-01T16:28:39;14.82;;;7.10;;